createdAt,value
2023-02-04T00:00:57.882Z,67.35
2023-02-04T00:03:26.189Z,66.75
2023-02-04T00:05:54.689Z,67.08
2023-02-04T00:08:23.860Z,66.74
2023-02-04T00:10:52.104Z,66.96
2023-02-04T00:13:20.801Z,66.84
2023-02-04T00:15:49.334Z,67.08
2023-02-04T00:18:21.834Z,67.02
2023-02-04T00:20:52.200Z,66.52
2023-02-04T00:23:20.859Z,67.11
2023-02-04T00:25:49.179Z,66.57
2023-02-04T00:28:17.816Z,66.68
2023-02-04T00:30:47.448Z,66.62
2023-02-04T00:33:15.839Z,66.87
2023-02-04T00:35:45.752Z,66.36
2023-02-04T00:38:13.934Z,66.76
2023-02-04T00:40:42.489Z,67.09
2023-02-04T00:43:11.496Z,67.04
2023-02-04T00:45:39.827Z,66.58
2023-02-04T00:48:08.074Z,67.08
2023-02-04T00:50:39.937Z,66.71
2023-02-04T00:53:09.945Z,67.32
2023-02-04T00:55:38.809Z,67.00
2023-02-04T00:58:07.488Z,66.91
2023-02-04T01:00:35.880Z,67.19
2023-02-04T01:03:04.177Z,66.97
2023-02-04T01:05:32.660Z,66.72
2023-02-04T01:08:03.544Z,67.26
2023-02-04T01:10:33.986Z,67.21
2023-02-04T01:13:02.740Z,66.82
2023-02-04T01:15:33.129Z,66.70
2023-02-04T01:18:01.459Z,66.85
2023-02-04T01:20:30.447Z,67.22
2023-02-04T01:22:59.020Z,66.94
2023-02-04T01:25:27.666Z,67.29
2023-02-04T01:27:57.447Z,67.18
2023-02-04T01:30:26.022Z,67.15
2023-02-04T01:32:54.715Z,66.85
2023-02-04T01:35:22.945Z,67.29
2023-02-04T01:37:51.616Z,67.04
2023-02-04T01:40:20.243Z,67.34
2023-02-04T01:42:48.987Z,67.75
2023-02-04T01:45:19.469Z,67.58
2023-02-04T01:47:48.103Z,67.78
2023-02-04T01:50:19.652Z,67.50
2023-02-04T01:52:48.379Z,67.39
2023-02-04T01:55:18.234Z,67.29
2023-02-04T01:57:46.982Z,67.82
2023-02-04T02:00:23.073Z,68.12
2023-02-04T02:02:53.490Z,67.82
2023-02-04T02:05:24.713Z,67.64
2023-02-04T02:07:55.841Z,67.39
2023-02-04T02:10:25.131Z,67.57
2023-02-04T02:12:55.151Z,67.73
2023-02-04T02:15:26.110Z,67.71
2023-02-04T02:17:55.122Z,67.93
2023-02-04T02:20:30.446Z,67.91
2023-02-04T02:23:06.907Z,68.15
2023-02-04T02:25:37.967Z,68.41
2023-02-04T02:28:10.415Z,67.58
2023-02-04T02:30:40.367Z,68.28
2023-02-04T02:33:09.089Z,69.00
2023-02-04T02:35:37.685Z,68.83
2023-02-04T02:38:06.304Z,68.94
2023-02-04T02:40:37.399Z,69.08
2023-02-04T02:43:07.499Z,68.71
2023-02-04T02:45:36.501Z,68.67
2023-02-04T02:48:05.092Z,68.84
2023-02-04T02:50:35.597Z,68.60
2023-02-04T02:53:04.654Z,69.31
2023-02-04T02:55:33.838Z,69.26
2023-02-04T02:58:04.331Z,69.24
2023-02-04T03:00:33.162Z,69.18
2023-02-04T03:03:09.471Z,68.93
2023-02-04T03:05:42.215Z,69.25
2023-02-04T03:08:12.559Z,68.52
2023-02-04T03:10:40.806Z,69.19
2023-02-04T03:13:11.927Z,69.00
2023-02-04T03:15:40.909Z,68.91
2023-02-04T03:18:09.902Z,68.86
2023-02-04T03:20:39.206Z,68.87
2023-02-04T03:23:08.031Z,69.12
2023-02-04T03:25:36.183Z,68.66
2023-02-04T03:28:04.183Z,68.35
2023-02-04T03:30:34.875Z,69.05
2023-02-04T03:33:03.228Z,68.27
2023-02-04T03:35:31.758Z,68.85
2023-02-04T03:38:00.516Z,68.20
2023-02-04T03:40:30.235Z,68.61
2023-02-04T03:42:58.936Z,68.33
2023-02-04T03:45:32.443Z,68.25
2023-02-04T03:48:04.994Z,67.79
2023-02-04T03:50:34.334Z,68.01
2023-02-04T03:53:02.720Z,67.96
2023-02-04T03:55:32.590Z,68.41
2023-02-04T03:58:01.064Z,67.41
2023-02-04T04:00:30.033Z,67.83
2023-02-04T04:02:59.792Z,67.78
2023-02-04T04:05:29.987Z,66.68
2023-02-04T04:07:58.652Z,67.25
2023-02-04T04:10:26.959Z,67.23
2023-02-04T04:12:55.446Z,67.12
2023-02-04T04:15:23.911Z,67.07
2023-02-04T04:17:52.645Z,66.84
2023-02-04T04:20:25.827Z,66.88
2023-02-04T04:22:55.678Z,67.04
2023-02-04T04:25:24.079Z,66.76
2023-02-04T04:27:52.851Z,67.01
2023-02-04T04:30:21.306Z,66.84
2023-02-04T04:32:49.737Z,66.85
2023-02-04T04:35:18.048Z,66.50
2023-02-04T04:37:46.068Z,66.37
2023-02-04T04:40:16.205Z,66.27
2023-02-04T04:42:44.608Z,66.18
2023-02-04T04:45:14.640Z,66.14
2023-02-04T04:47:42.839Z,66.17
2023-02-04T04:50:12.229Z,66.39
2023-02-04T04:52:40.617Z,66.53
2023-02-04T04:55:10.471Z,66.44
2023-02-04T04:57:47.384Z,65.88
2023-02-04T05:00:19.392Z,66.75
2023-02-04T05:02:48.385Z,66.17
2023-02-04T05:05:19.070Z,66.54
2023-02-04T05:07:48.536Z,66.19
2023-02-04T05:10:17.776Z,66.49
2023-02-04T05:12:47.924Z,66.34
2023-02-04T05:15:16.841Z,66.16
2023-02-04T05:17:45.128Z,66.37
2023-02-04T05:20:14.447Z,66.35
2023-02-04T05:22:42.712Z,66.32
2023-02-04T05:25:11.534Z,66.61
2023-02-04T05:27:39.815Z,66.08
2023-02-04T05:30:13.003Z,66.46
2023-02-04T05:32:41.635Z,66.48
2023-02-04T05:35:10.861Z,66.35
2023-02-04T05:37:39.288Z,66.58
2023-02-04T05:40:08.826Z,66.70
2023-02-04T05:42:37.262Z,66.33
2023-02-04T05:45:05.831Z,66.14
2023-02-04T05:47:36.919Z,66.71
2023-02-04T05:50:05.780Z,66.54
2023-02-04T05:52:34.467Z,66.48
2023-02-04T05:55:02.873Z,66.55
2023-02-04T05:57:31.274Z,66.24
2023-02-04T05:59:59.328Z,66.29
2023-02-04T06:02:28.103Z,66.19
2023-02-04T06:04:57.967Z,66.06
2023-02-04T06:07:26.420Z,66.78
2023-02-04T06:09:55.004Z,66.42
2023-02-04T06:12:23.052Z,66.36
2023-02-04T06:14:51.533Z,65.99
2023-02-04T06:17:20.582Z,66.53
2023-02-04T06:19:49.024Z,65.96
2023-02-04T06:22:19.378Z,65.96
2023-02-04T06:24:48.146Z,66.26
2023-02-04T06:27:23.137Z,65.80
2023-02-04T06:29:51.961Z,65.92
2023-02-04T06:32:20.576Z,66.64
2023-02-04T06:34:50.974Z,66.26
2023-02-04T06:37:21.682Z,66.50
2023-02-04T06:39:52.170Z,66.31
2023-02-04T06:42:20.593Z,65.54
2023-02-04T06:44:49.642Z,66.30
2023-02-04T06:47:18.196Z,66.54
2023-02-04T06:49:47.991Z,66.12
2023-02-04T06:52:16.967Z,66.37
2023-02-04T06:54:47.286Z,66.25
2023-02-04T06:57:15.307Z,65.95
2023-02-04T06:59:44.193Z,66.28
2023-02-04T07:02:13.710Z,65.87
2023-02-04T07:04:45.126Z,66.31
2023-02-04T07:07:13.887Z,66.10
2023-02-04T07:09:42.682Z,66.25
2023-02-04T07:12:13.673Z,65.88
2023-02-04T07:14:44.024Z,66.19
2023-02-04T07:17:13.610Z,65.97
2023-02-04T07:19:41.957Z,66.43
2023-02-04T07:22:10.662Z,66.32
2023-02-04T07:24:39.434Z,66.20
2023-02-04T07:27:09.246Z,66.38
2023-02-04T07:29:39.331Z,65.92
2023-02-04T07:32:07.559Z,66.00
2023-02-04T07:34:36.662Z,66.28
2023-02-04T07:37:05.726Z,66.31
2023-02-04T07:39:33.825Z,66.38
2023-02-04T07:42:02.193Z,65.76
2023-02-04T07:44:30.849Z,66.46
2023-02-04T07:47:00.778Z,65.65
2023-02-04T07:49:29.207Z,65.78
2023-02-04T07:51:58.243Z,66.28
2023-02-04T07:54:26.623Z,65.69
2023-02-04T07:56:54.802Z,65.59
2023-02-04T07:59:23.618Z,65.84
2023-02-04T08:01:52.732Z,66.10
2023-02-04T08:04:22.864Z,66.21
2023-02-04T08:06:52.809Z,66.03
2023-02-04T08:09:21.040Z,65.84
2023-02-04T08:11:49.269Z,65.79
2023-02-04T08:14:17.951Z,66.33
2023-02-04T08:16:45.915Z,65.90
2023-02-04T08:19:19.417Z,65.81
2023-02-04T08:21:50.046Z,65.99
2023-02-04T08:24:18.769Z,66.21
2023-02-04T08:26:47.558Z,66.03
2023-02-04T08:29:16.035Z,66.16
2023-02-04T08:31:44.360Z,65.82
2023-02-04T08:34:13.773Z,65.80
2023-02-04T08:36:42.395Z,65.97
2023-02-04T08:39:12.396Z,66.22
2023-02-04T08:41:41.216Z,65.98
2023-02-04T08:44:09.312Z,66.71
2023-02-04T08:46:39.365Z,66.24
2023-02-04T08:49:07.903Z,66.39
2023-02-04T08:51:36.266Z,66.10
2023-02-04T08:54:04.425Z,66.09
2023-02-04T08:56:37.865Z,66.49
2023-02-04T08:59:06.652Z,65.96
2023-02-04T09:01:34.755Z,65.98
2023-02-04T09:04:03.565Z,65.71
2023-02-04T09:06:32.351Z,65.98
2023-02-04T09:09:00.959Z,65.47
2023-02-04T09:11:30.104Z,65.75
2023-02-04T09:13:59.858Z,65.57
2023-02-04T09:16:28.009Z,65.54
2023-02-04T09:18:57.997Z,65.45
2023-02-04T09:21:26.228Z,65.44
2023-02-04T09:23:56.070Z,65.33
2023-02-04T09:26:24.234Z,65.28
2023-02-04T09:28:52.832Z,65.75
2023-02-04T09:31:22.917Z,65.68
2023-02-04T09:33:51.595Z,65.93
2023-02-04T09:36:20.584Z,65.57
2023-02-04T09:38:49.183Z,65.39
2023-02-04T09:41:17.387Z,65.34
2023-02-04T09:43:46.871Z,66.14
2023-02-04T09:46:23.764Z,66.03
2023-02-04T09:48:53.577Z,66.17
2023-02-04T09:51:24.188Z,66.03
2023-02-04T09:53:54.683Z,66.02
2023-02-04T09:56:22.879Z,66.13
2023-02-04T09:58:51.685Z,65.71
2023-02-04T10:01:22.797Z,65.70
2023-02-04T10:03:51.551Z,65.74
2023-02-04T10:06:32.048Z,65.71
2023-02-04T10:09:01.166Z,65.96
2023-02-04T10:11:33.836Z,65.81
2023-02-04T10:14:02.235Z,65.80
2023-02-04T10:16:34.396Z,66.03
2023-02-04T10:19:05.744Z,65.76
2023-02-04T10:21:37.153Z,65.91
2023-02-04T10:24:08.733Z,66.03
2023-02-04T10:26:37.067Z,65.84
2023-02-04T10:29:09.800Z,65.63
2023-02-04T10:31:41.101Z,66.30
2023-02-04T10:34:18.110Z,65.77
2023-02-04T10:36:49.180Z,66.36
2023-02-04T10:39:18.856Z,65.91
2023-02-04T10:41:49.837Z,66.02
2023-02-04T10:44:21.548Z,66.44
2023-02-04T10:46:53.188Z,66.00
2023-02-04T10:49:25.734Z,66.63
2023-02-04T10:51:54.130Z,66.29
2023-02-04T10:54:35.391Z,66.10
2023-02-04T10:57:16.155Z,66.72
2023-02-04T10:59:45.626Z,66.36
2023-02-04T11:02:33.854Z,66.29
2023-02-04T11:05:03.283Z,66.32
2023-02-04T11:07:31.448Z,66.68
2023-02-04T11:09:59.531Z,66.39
2023-02-04T11:12:41.382Z,66.94
2023-02-04T11:15:44.737Z,66.55
2023-02-04T11:18:29.312Z,66.40
2023-02-04T11:20:59.383Z,66.41
2023-02-04T11:23:39.040Z,66.59
2023-02-04T11:26:12.075Z,67.00
2023-02-04T11:28:58.132Z,66.87
2023-02-04T11:31:45.657Z,66.30
2023-02-04T11:34:32.610Z,66.72
2023-02-04T11:37:17.032Z,67.00
2023-02-04T11:42:42.508Z,67.42
2023-02-04T11:45:16.881Z,67.36
2023-02-04T11:47:46.093Z,67.60
2023-02-04T11:50:29.348Z,67.47
2023-02-04T11:52:58.867Z,67.25
2023-02-04T11:55:27.540Z,67.70
2023-02-04T11:57:58.478Z,67.20
2023-02-04T12:00:29.034Z,67.65
2023-02-04T12:02:59.636Z,66.84
2023-02-04T12:05:44.501Z,67.00
2023-02-04T12:08:15.574Z,67.21
2023-02-04T12:10:51.437Z,67.54
2023-02-04T12:13:23.875Z,66.73
2023-02-04T12:15:59.563Z,67.16
2023-02-04T12:18:29.112Z,67.50
2023-02-04T12:23:48.092Z,66.46
2023-02-04T12:26:16.204Z,66.51
2023-02-04T12:28:44.641Z,65.90
2023-02-04T12:31:12.864Z,65.39
2023-02-04T12:33:41.441Z,65.17
2023-02-04T12:36:11.511Z,65.10
2023-02-04T12:38:39.672Z,65.79
2023-02-04T12:41:09.774Z,65.80
2023-02-04T12:43:38.437Z,65.97
2023-02-04T12:46:07.166Z,65.45
2023-02-04T12:48:35.563Z,65.12
2023-02-04T12:51:07.315Z,65.18
2023-02-04T12:53:37.421Z,64.32
2023-02-04T12:56:07.943Z,65.09
2023-02-04T12:58:36.318Z,65.31
2023-02-04T13:01:04.772Z,64.53
2023-02-04T13:03:32.984Z,64.30
2023-02-04T13:06:01.663Z,64.49
2023-02-04T13:08:31.648Z,64.83
2023-02-04T13:11:01.605Z,64.29
2023-02-04T13:13:31.264Z,63.64
2023-02-04T13:15:59.586Z,64.14
2023-02-04T13:18:28.059Z,63.56
2023-02-04T13:20:57.200Z,63.53
2023-02-04T13:23:26.319Z,63.79
2023-02-04T13:25:55.400Z,64.39
2023-02-04T13:28:25.121Z,64.14
2023-02-04T13:30:53.374Z,63.57
2023-02-04T13:33:22.122Z,63.02
2023-02-04T13:35:50.435Z,63.24
2023-02-04T13:38:19.690Z,63.83
2023-02-04T13:40:48.666Z,64.30
2023-02-04T13:43:17.756Z,63.64
2023-02-04T13:45:49.252Z,63.90
2023-02-04T13:48:17.795Z,64.79
2023-02-04T13:50:47.213Z,64.50
2023-02-04T13:53:15.602Z,64.37
2023-02-04T13:55:45.421Z,64.07
2023-02-04T13:58:13.779Z,64.23
2023-02-04T14:00:42.451Z,64.06
2023-02-04T14:03:12.158Z,65.04
2023-02-04T14:05:40.188Z,64.38
2023-02-04T14:11:01.131Z,63.71
2023-02-04T14:13:29.980Z,64.22
2023-02-04T14:15:58.099Z,63.49
2023-02-04T14:18:27.634Z,63.60
2023-02-04T14:20:55.955Z,63.46
2023-02-04T14:23:25.350Z,63.05
2023-02-04T14:25:53.635Z,63.13
2023-02-04T14:28:22.158Z,63.75
2023-02-04T14:30:50.411Z,63.38
2023-02-04T14:33:19.124Z,63.64
2023-02-04T14:35:48.997Z,64.14
2023-02-04T14:38:18.483Z,63.82
2023-02-04T14:40:46.763Z,63.48
2023-02-04T14:43:15.080Z,64.17
2023-02-04T14:45:43.320Z,63.75
2023-02-04T14:48:11.696Z,63.87
2023-02-04T14:50:39.922Z,63.24
2023-02-04T14:53:09.783Z,62.42
2023-02-04T14:55:37.820Z,63.06
2023-02-04T14:58:06.205Z,62.31
2023-02-04T15:00:34.665Z,63.24
2023-02-04T15:03:05.817Z,62.92
2023-02-04T15:05:34.139Z,62.79
2023-02-04T15:08:02.269Z,62.63
2023-02-04T15:10:32.262Z,63.54
2023-02-04T15:13:00.701Z,63.35
2023-02-04T15:15:29.120Z,63.08
2023-02-04T15:17:57.931Z,62.90
2023-02-04T15:20:26.751Z,62.53
2023-02-04T15:22:56.448Z,62.83
2023-02-04T15:25:24.522Z,63.24
2023-02-04T15:27:54.466Z,63.08
2023-02-04T15:30:22.896Z,62.62
2023-02-04T15:32:51.178Z,61.75
2023-02-04T15:35:19.936Z,62.29
2023-02-04T15:37:48.524Z,62.72
2023-02-04T15:40:18.562Z,62.51
2023-02-04T15:42:47.959Z,62.63
2023-02-04T15:45:18.557Z,62.94
2023-02-04T15:47:47.197Z,62.96
2023-02-04T15:50:15.491Z,63.12
2023-02-04T15:52:46.770Z,62.92
2023-02-04T15:55:15.483Z,63.14
2023-02-04T15:57:43.781Z,63.16
2023-02-04T16:00:13.077Z,62.99
2023-02-04T16:02:43.904Z,63.44
2023-02-04T16:05:12.104Z,63.54
2023-02-04T16:07:40.257Z,63.19
2023-02-04T16:10:09.240Z,63.37
2023-02-04T16:12:37.631Z,63.25
2023-02-04T16:15:07.062Z,63.30
2023-02-04T16:17:35.528Z,63.25
2023-02-04T16:20:07.137Z,63.60
2023-02-04T16:22:36.555Z,63.19
2023-02-04T16:25:04.873Z,63.85
2023-02-04T16:27:34.111Z,63.54
2023-02-04T16:30:03.589Z,63.98
2023-02-04T16:32:33.669Z,63.80
2023-02-04T16:35:04.864Z,64.05
2023-02-04T16:37:36.180Z,63.62
2023-02-04T16:40:05.706Z,63.54
2023-02-04T16:42:34.204Z,63.76
2023-02-04T16:45:02.603Z,63.47
2023-02-04T16:47:32.790Z,64.10
2023-02-04T16:50:03.261Z,63.68
2023-02-04T16:52:32.516Z,64.28
2023-02-04T16:55:05.597Z,63.55
2023-02-04T16:57:34.315Z,64.21
2023-02-04T17:00:02.289Z,63.54
2023-02-04T17:02:33.262Z,63.84
2023-02-04T17:05:03.965Z,64.08
2023-02-04T17:07:32.907Z,63.88
2023-02-04T17:10:03.289Z,63.63
2023-02-04T17:12:31.932Z,63.54
2023-02-04T17:15:01.796Z,63.01
2023-02-04T17:17:29.903Z,63.07
2023-02-04T17:20:00.670Z,63.12
2023-02-04T17:22:29.539Z,62.96
2023-02-04T17:24:57.698Z,62.62
2023-02-04T17:27:27.780Z,63.24
2023-02-04T17:29:56.314Z,62.59
2023-02-04T17:32:24.742Z,63.12
2023-02-04T17:34:55.383Z,63.40
2023-02-04T17:37:23.618Z,62.90
2023-02-04T17:39:52.092Z,63.10
2023-02-04T17:42:20.628Z,62.80
2023-02-04T17:44:52.358Z,63.51
2023-02-04T17:47:20.531Z,63.69
2023-02-04T17:49:49.447Z,63.89
2023-02-04T17:52:18.456Z,63.67
2023-02-04T17:54:47.498Z,63.83
2023-02-04T17:57:20.779Z,63.14
2023-02-04T17:59:51.876Z,63.55
2023-02-04T18:02:27.394Z,63.31
2023-02-04T18:04:59.580Z,63.13
2023-02-04T18:10:22.626Z,63.42
2023-02-04T18:12:54.941Z,63.85
2023-02-04T18:15:39.695Z,64.01
2023-02-04T18:18:19.719Z,63.73
2023-02-04T18:20:48.745Z,63.10
2023-02-04T18:23:19.980Z,63.39
2023-02-04T18:25:49.324Z,63.35
2023-02-04T18:28:19.644Z,63.83
2023-02-04T18:30:54.160Z,63.93
2023-02-04T18:33:27.734Z,63.81
2023-02-04T18:36:02.006Z,63.36
2023-02-04T18:38:39.418Z,63.54
2023-02-04T18:41:28.269Z,63.48
2023-02-04T18:44:02.606Z,63.08
2023-02-04T18:46:37.402Z,63.14
2023-02-04T18:49:20.763Z,63.52
2023-02-04T18:51:49.420Z,62.95
2023-02-04T18:54:41.452Z,63.64
2023-02-04T18:57:30.643Z,63.06
2023-02-04T19:00:22.527Z,63.20
2023-02-04T19:02:55.538Z,63.22
2023-02-04T19:05:44.639Z,63.47
2023-02-04T19:08:44.916Z,63.44
2023-02-04T19:11:27.606Z,63.61
2023-02-04T19:14:00.104Z,63.30
2023-02-04T19:16:33.569Z,63.10
2023-02-04T19:19:06.923Z,63.57
2023-02-04T19:21:36.222Z,63.33
2023-02-04T19:24:22.428Z,63.71
2023-02-04T19:26:55.948Z,63.71
2023-02-04T19:29:41.940Z,63.77
2023-02-04T19:32:46.032Z,63.94
2023-02-04T19:35:20.436Z,63.24
2023-02-04T19:37:54.917Z,63.58
2023-02-04T19:40:31.802Z,63.28
2023-02-04T19:43:16.125Z,63.12
2023-02-04T19:45:44.835Z,63.07
2023-02-04T19:48:23.724Z,63.35
2023-02-04T19:50:54.956Z,63.12
2023-02-04T19:53:25.847Z,62.79
2023-02-04T19:55:55.975Z,62.98
2023-02-04T19:58:26.483Z,63.27
2023-02-04T20:01:03.217Z,63.51
2023-02-04T20:03:41.973Z,63.43
2023-02-04T20:06:32.695Z,63.17
2023-02-04T20:09:03.023Z,63.52
2023-02-04T20:11:54.660Z,63.28
2023-02-04T20:14:38.139Z,63.45
2023-02-04T20:17:23.906Z,63.40
2023-02-04T20:19:52.183Z,62.94
2023-02-04T20:22:56.011Z,63.26
2023-02-04T20:25:43.826Z,63.09
2023-02-04T20:28:42.743Z,63.09
2023-02-04T20:31:25.514Z,63.31
2023-02-04T20:33:55.774Z,63.08
2023-02-04T20:36:46.119Z,63.11
2023-02-04T20:39:29.626Z,63.17
2023-02-04T20:42:17.787Z,63.15
2023-02-04T20:44:48.851Z,63.22
2023-02-04T20:47:20.361Z,62.78
2023-02-04T20:49:55.789Z,63.09
2023-02-04T20:53:13.671Z,63.21
2023-02-04T20:55:49.012Z,63.65
2023-02-04T20:58:21.595Z,63.35
2023-02-04T21:00:53.712Z,63.50
2023-02-04T21:03:35.044Z,63.39
2023-02-04T21:06:17.346Z,63.00
2023-02-04T21:08:48.296Z,62.98
2023-02-04T21:11:18.769Z,63.40
2023-02-04T21:13:46.978Z,63.14
2023-02-04T21:16:15.663Z,63.33
2023-02-04T21:18:50.049Z,63.10
2023-02-04T21:21:20.519Z,63.27
2023-02-04T21:23:49.880Z,63.44
2023-02-04T21:26:19.919Z,63.35
2023-02-04T21:28:48.073Z,63.34
2023-02-04T21:31:21.502Z,63.05
2023-02-04T21:33:49.725Z,62.99
2023-02-04T21:36:17.867Z,62.95
2023-02-04T21:38:47.602Z,62.88
2023-02-04T21:41:16.831Z,63.54
2023-02-04T21:43:46.506Z,62.73
2023-02-04T21:46:14.832Z,62.89
2023-02-04T21:48:44.750Z,62.75
2023-02-04T21:51:15.371Z,62.98
2023-02-04T21:53:47.118Z,63.07
2023-02-04T21:56:17.605Z,63.17
2023-02-04T21:58:49.553Z,63.40
2023-02-04T22:01:17.934Z,63.07
2023-02-04T22:03:48.081Z,62.91
2023-02-04T22:06:16.753Z,63.06
2023-02-04T22:08:45.347Z,63.00
2023-02-04T22:11:14.964Z,63.58
2023-02-04T22:14:03.079Z,63.75
2023-02-04T22:16:36.392Z,63.32
2023-02-04T22:19:04.647Z,63.74
2023-02-04T22:21:35.112Z,63.88
2023-02-04T22:24:03.318Z,63.66
2023-02-04T22:26:31.911Z,63.53
2023-02-04T22:28:59.870Z,63.44
2023-02-04T22:31:28.294Z,63.95
2023-02-04T22:33:58.492Z,63.48
2023-02-04T22:36:28.056Z,63.90
2023-02-04T22:38:56.354Z,63.76
2023-02-04T22:41:25.485Z,63.93
2023-02-04T22:43:53.951Z,63.60
2023-02-04T22:46:22.239Z,63.57
2023-02-04T22:48:51.416Z,63.35
2023-02-04T22:51:22.803Z,63.73
2023-02-04T22:53:51.705Z,63.38
2023-02-04T22:56:21.744Z,63.49
2023-02-04T22:58:52.696Z,64.10
2023-02-04T23:01:26.088Z,63.52
2023-02-04T23:03:54.218Z,64.17
2023-02-04T23:06:24.750Z,64.27
2023-02-04T23:08:54.584Z,64.03
2023-02-04T23:11:23.251Z,63.85
2023-02-04T23:13:52.599Z,63.93
2023-02-04T23:16:21.742Z,64.00
2023-02-04T23:18:49.966Z,64.13
2023-02-04T23:21:20.277Z,63.88
2023-02-04T23:23:50.912Z,64.14
2023-02-04T23:26:19.717Z,63.77
2023-02-04T23:28:48.190Z,64.32
2023-02-04T23:31:16.707Z,64.04
2023-02-04T23:33:44.983Z,64.34
2023-02-04T23:36:13.750Z,64.16
2023-02-04T23:38:43.075Z,64.03
2023-02-04T23:41:13.207Z,63.91
2023-02-04T23:43:41.670Z,64.04
2023-02-04T23:46:12.037Z,63.45
2023-02-04T23:48:46.509Z,63.97
2023-02-04T23:51:15.799Z,64.13
2023-02-04T23:53:43.966Z,63.57
2023-02-04T23:56:14.111Z,64.25
2023-02-04T23:58:42.465Z,63.83
